Home > Products > Valid Products > TAF

000
FTUS41 KBTV 240500
TAFBTV
TAF
KBTV 240524Z 2406/2506 33014G20KT P6SM SCT070
     FM241400 33020G30KT P6SM SCT060
     FM242300 34010KT P6SM FEW060
     FM250100 33005KT P6SM SKC=



000
FTUS41 KBTV 240500
TAFMSS
TAF
KMSS 240524Z 2406/2506 31009KT P6SM SKC
     FM241300 31015G25KT P6SM SKC
     FM242300 31009KT P6SM SKC
     FM250100 29005KT P6SM SKC=



000
FTUS41 KBTV 240500
TAFMPV
TAF
KMPV 240524Z 2406/2506 33014G24KT P6SM SCT045 OVC060
     FM241400 33020G30KT P6SM BKN050
     FM242100 33015G25KT P6SM SCT050
     FM250000 33007KT P6SM SKC=



000
FTUS41 KBTV 240500
TAFSLK
TAF
KSLK 240524Z 2406/2506 33008KT P6SM SKC
     FM241300 33014G20KT P6SM FEW050
     FM242300 32007KT P6SM SKC
     FM250100 VRB03KT P6SM SKC=



000
FTUS41 KBTV 232300
TAFBTV
TAF
KBTV 232320Z 2400/2424 33014G24KT P6SM OVC045
     FM240200 33014KT P6SM OVC040
     FM241400 33020G30KT P6SM SCT050=



000
FTUS41 KBTV 232300
TAFMPV
TAF
KMPV 232320Z 2400/2424 33010G20KT P6SM SCT025 OVC030
     FM240200 33012KT P6SM OVC035
     FM241400 32018G28KT P6SM BKN045=



000
FTUS41 KBTV 232300
TAFSLK
TAF
KSLK 232320Z 2400/2424 32013KT P6SM SCT025 BKN035 OVC040
     FM240200 31010KT P6SM BKN035
     FM241300 32013G23KT P6SM SCT045=



000
FTUS41 KBTV 232300
TAFMSS
TAF
KMSS 232320Z 2400/2424 31014G24KT P6SM OVC070
     FM240200 32014KT P6SM SCT060
     FM241200 31016G26KT P6SM SKC=



000
FTUS41 KBTV 231900 AAA
TAFMPV
TAF AMD
KMPV 231949Z 2320/2418 33010KT P6SM OVC025
     FM241200 32014KT P6SM SCT025 BKN035
     FM241400 32018G28KT P6SM BKN045=



000
FTUS41 KBTV 231700
TAFMSS
TAF
KMSS 231731Z 2318/2418 31014G24KT P6SM BKN045 OVC060
     FM240100 32014KT P6SM BKN060
     FM241200 31016G26KT P6SM SKC=



000
FTUS41 KBTV 231700
TAFSLK
TAF
KSLK 231731Z 2318/2418 31011G18KT P6SM BKN015 OVC025
     FM232300 32013G19KT P6SM OVC025
     FM240300 32010KT P6SM BKN025
     FM241200 31010KT P6SM BKN040
     FM241500 32013G23KT P6SM SCT045=



000
FTUS41 KBTV 231700
TAFMPV
TAF
KMPV 231731Z 2318/2418 32012G20KT P6SM OVC015
     FM240000 32012KT P6SM OVC025
     FM241200 32014KT P6SM SCT025 BKN035
     FM241400 32018G28KT P6SM BKN045=



000
FTUS41 KBTV 231700
TAFBTV
TAF
KBTV 231731Z 2318/2418 33014G24KT P6SM OVC035
     FM240100 33012KT P6SM OVC040
     FM241600 33020G30KT P6SM SCT050=



000
FTUS41 KBTV 231500 AAA
TAFBTV
TAF AMD
KBTV 231512Z 2315/2412 33014G24KT P6SM VCSH OVC030
     FM240000 32012G20KT P6SM VCSH SCT020 OVC035=



000
FTUS41 KBTV 231500 AAA
TAFMPV
TAF AMD
KMPV 231512Z 2315/2412 32012G22KT P6SM VCSH BKN015 OVC025
     FM240000 31012G20KT P6SM VCSH SCT025 OVC035=



000
FTUS41 KBTV 231100
TAFMSS
TAF
KMSS 231128Z 2312/2412 32012G20KT P6SM VCSH OVC060
     FM240000 29014KT P6SM VCSH SCT025 OVC035=



000
FTUS41 KBTV 231100
TAFMPV
TAF
KMPV 231128Z 2312/2412 31009KT P6SM VCSH BKN009 OVC018
      TEMPO 2312/2316 SCT009 OVC018
     FM231600 32014G20KT P6SM VCSH BKN020 OVC035
     FM240000 31012G20KT P6SM VCSH SCT025 OVC035=



000
FTUS41 KBTV 231100
TAFSLK
TAF
KSLK 231128Z 2312/2412 34005KT 4SM BR BKN008 OVC015
      TEMPO 2312/2316 6SM BR SCT008 OVC015
     FM231600 30009G18KT P6SM VCSH SCT008 OVC015
     FM240000 29009KT P6SM VCSH SCT005 OVC011=



000
FTUS41 KBTV 231100
TAFBTV
TAF
KBTV 231128Z 2312/2412 33010KT P6SM VCSH OVC020
      TEMPO 2312/2316 OVC018
     FM231600 33014G20KT P6SM VCSH OVC020
     FM240000 32012G20KT P6SM VCSH SCT020 OVC035=



000
FTUS41 KBTV 230900 AAA
TAFBTV
TAF AMD
KBTV 230957Z 2310/2406 33009KT P6SM VCSH SCT008 OVC014
     FM231400 32012G20KT P6SM VCSH SCT008 OVC015
     FM240000 32012G20KT P6SM VCSH SCT025 OVC035=



000
FTUS41 KBTV 230800 AAA
TAFMPV
TAF AMD
KMPV 230836Z 2309/2406 31009KT P6SM VCSH SCT008 OVC017
      TEMPO 2309/2313 6SM -SHRA BR BKN008 OVC017
     FM231400 32009G18KT P6SM VCSH BKN020 OVC035
     FM240000 31012G20KT P6SM VCSH SCT025 OVC035=



000
FTUS41 KBTV 230500
TAFMSS
TAF
KMSS 230532Z 2306/2406 33009KT P6SM VCSH SCT009 OVC035
      TEMPO 2306/2310 5SM -SHRA BR BKN009 OVC035
     FM231400 31014G20KT P6SM VCSH BKN025 OVC035
     FM240000 29014KT P6SM VCSH SCT025 OVC035=



000
FTUS41 KBTV 230500
TAFBTV
TAF
KBTV 230532Z 2306/2406 33009KT P6SM VCSH OVC005
      TEMPO 2306/2310 5SM -SHRA BR OVC007
     FM231400 32012G20KT P6SM VCSH SCT005 OVC011
     FM240000 32012G20KT P6SM VCSH SCT025 OVC035=



000
FTUS41 KBTV 230500
TAFMPV
TAF
KMPV 230532Z 2306/2406 30006KT P6SM VCSH SCT025 OVC035
      TEMPO 2306/2310 6SM -SHRA BR BKN025 OVC035
     FM231400 32009G18KT P6SM VCSH BKN025 OVC035
     FM240000 31012G20KT P6SM VCSH SCT025 OVC035=



000
FTUS41 KBTV 230500
TAFSLK
TAF
KSLK 230532Z 2306/2406 30008KT 5SM -RA BR OVC003
      TEMPO 2306/2310 3SM -RA BR OVC006
     FM231400 30009G18KT P6SM VCSH BKN005 OVC011
     FM240000 29009KT P6SM VCSH SCT005 OVC011=



000
FTUS41 KBTV 222300
TAFMSS
TAF
KMSS 222320Z 2300/2324 28009KT 3SM -RA BR OVC006
      TEMPO 2300/2303 2SM -RA BR
     FM231000 32012KT P6SM VCSH SCT007 OVC015
     FM231300 32010G20KT P6SM SCT012 BKN022=



000
FTUS41 KBTV 222300
TAFBTV
TAF
KBTV 222320Z 2300/2324 23005KT P6SM -RA SCT040 OVC050
     FM230200 30007KT P6SM -SHRA SCT008 OVC015
     FM230400 33010KT P6SM VCSH SCT007 OVC012
      TEMPO 2304/2308 OVC007
     FM231000 33010G20KT P6SM VCSH SCT007 BKN018=



000
FTUS41 KBTV 222300
TAFSLK
TAF
KSLK 222320Z 2300/2324 25008KT 3SM -RA BR OVC008
      TEMPO 2300/2302 2SM -RA BR
     FM230200 30008KT 5SM -RA BR OVC007
     FM230800 29005KT 3SM BR VCSH OVC007
     FM231300 33010KT P6SM VCSH SCT012 OVC015=



000
FTUS41 KBTV 222300
TAFMPV
TAF
KMPV 222320Z 2300/2324 19007KT 6SM -RA BR BKN040 OVC070
      TEMPO 2300/2302 3SM BR
     FM230230 28008KT P6SM -SHRA SCT008 BKN020
     FM230400 31008KT P6SM VCSH BKN006 OVC012
     FM231000 32010KT P6SM BKN008 OVC013
     FM231300 32010G20KT P6SM -RA SCT008 OVC015=



000
FTUS41 KBTV 222100 AAA
TAFMPV
TAF AMD
KMPV 222114Z 2221/2318 20010G20KT P6SM -SHRA BKN040 OVC080
     FM222200 28008KT P6SM -SHRA SCT008 BKN020
     FM230400 31008KT P6SM VCSH SCT006 OVC012
     FM231000 32010G20KT P6SM -RA SCT008 OVC015=



000
FTUS41 KBTV 221700
TAFSLK
TAF
KSLK 221733Z 2218/2318 22007KT 5SM -RA BR SCT018 OVC020
     FM221900 25008KT 4SM -SHRA BR BKN008 OVC015
      TEMPO 2220/2224 2SM -SHRA BR OVC008
     FM230000 33008KT 5SM -SHRA BR OVC007
     FM230800 29005KT P6SM VCSH SCT007 OVC012
     FM231200 33010KT P6SM VCSH SCT012 OVC015=



000
FTUS41 KBTV 221700
TAFBTV
TAF
KBTV 221733Z 2218/2318 19010G20KT P6SM -RA BKN050 OVC080
     FM222000 20010KT 4SM -RA BR BKN022 OVC035
     FM222200 30010KT P6SM -SHRA SCT008 OVC015
     FM230400 33008KT P6SM VCSH SCT007 OVC012
     FM231000 33010G20KT P6SM VCSH SCT007 BKN018=



000
FTUS41 KBTV 221700
TAFMPV
TAF
KMPV 221733Z 2218/2318 20010G20KT P6SM -SHRA BKN040 OVC080
     FM222100 24010G20KT 4SM RA BR BKN025 OVC045
     FM230000 28008KT P6SM -SHRA SCT008 BKN018
     FM230400 31008KT P6SM VCSH SCT006 OVC012
     FM231000 32010G20KT P6SM -RA SCT008 OVC015=



000
FTUS41 KBTV 221700
TAFMSS
TAF
KMSS 221733Z 2218/2318 25007KT 6SM -RA BKN008 OVC012
      TEMPO 2219/2223 2SM -RA BR OVC007
     FM222300 28009KT P6SM -SHRA OVC008
     FM231000 32012KT P6SM VCSH SCT007 OVC015
     FM231300 32010G20KT P6SM SCT012 BKN022=



000
FTUS41 KBTV 221100
TAFMPV
TAF
KMPV 221129Z 2212/2312 VRB04KT P6SM BKN060 OVC080
     FM221400 18009G18KT P6SM BKN060 OVC120
     FM221900 20010G20KT P6SM VCSH BKN040 OVC080
     FM222100 24010G20KT 4SM RA BR BKN020 OVC045
     FM230200 28008KT P6SM -SHRA SCT008 BKN012 OVC025
     FM230700 31008KT P6SM VCSH SCT009 BKN015 OVC030=



000
FTUS41 KBTV 221100
TAFSLK
TAF
KSLK 221129Z 2212/2312 VRB03KT P6SM BKN080 OVC100
     FM221400 22008KT P6SM VCSH SCT025 BKN035 OVC050
     FM221700 24012G22KT 4SM RA BR SCT015 BKN025 OVC045
     FM222200 28013KT 6SM -SHRA BR SCT008 BKN012 OVC025
     FM230800 33008KT P6SM VCSH SCT007 BKN015 OVC030=



000
FTUS41 KBTV 221100
TAFBTV
TAF
KBTV 221129Z 2212/2312 19012KT P6SM BKN080 OVC120
     FM221600 19012G22KT P6SM VCSH BKN050 OVC080
     FM222000 20013G25KT 4SM RA BR BKN025 OVC040
     FM230200 30010KT P6SM -SHRA SCT015 BKN025 OVC035
     FM230600 33008KT P6SM VCSH BKN018 OVC025=



000
FTUS41 KBTV 221100
TAFMSS
TAF
KMSS 221129Z 2212/2312 VRB04KT P6SM BKN045
     FM221500 22008KT 4SM RA BR SCT025 OVC045
     FM221900 25007KT P6SM -RA SCT010 BKN025 OVC045
     FM230000 30009KT P6SM -SHRA SCT008 BKN015 OVC030
     FM230800 32012KT P6SM VCSH SCT007 BKN010 OVC025=



000
FTUS41 KBTV 220500
TAFBTV
TAF
KBTV 220531Z 2206/2306 VRB03KT P6SM VCSH OVC070
     FM221200 17010KT P6SM BKN080 OVC120
     FM221600 18010G20KT P6SM VCSH BKN050 OVC080
     FM222000 19012G25KT 4SM RA BR BKN025 OVC040
     FM230200 30010KT P6SM -SHRA SCT015 BKN025 OVC035=



000
FTUS41 KBTV 220500
TAFMSS
TAF
KMSS 220531Z 2206/2306 04007KT P6SM -SHRA SCT050 OVC100
     FM220900 20004KT P6SM BKN045
     FM221500 22008KT 4SM RA BR SCT025 OVC045
     FM221900 25007KT P6SM -RA BKN025 OVC045
     FM230000 30009KT P6SM -SHRA SCT008 BKN020 OVC035=



000
FTUS41 KBTV 220500
TAFMPV
TAF
KMPV 220531Z 2206/2306 VRB03KT P6SM BKN060 OVC080
     FM221400 18009G18KT P6SM BKN060 OVC120
     FM221900 20010G20KT P6SM VCSH BKN040 OVC080
     FM222100 24007KT 4SM RA BR BKN020 OVC045
     FM230200 28008KT P6SM -SHRA SCT008 BKN015 OVC025=



000
FTUS41 KBTV 220500
TAFSLK
TAF
KSLK 220531Z 2206/2306 VRB03KT P6SM SCT060 OVC100
     FM221400 21008KT P6SM VCSH SCT025 BKN035 OVC050
     FM221700 23012G22KT 4SM RA BR BKN025 OVC045
     FM222200 26013KT 6SM -SHRA BR SCT012 BKN018 OVC025=



000
FTUS41 KBTV 212300
TAFBTV
TAF
KBTV 212336Z 2200/2224 24005KT P6SM BKN070 OVC120
     FM220400 17004KT P6SM VCSH OVC070
     FM221100 19010G20KT P6SM BKN080 OVC120
     FM222000 19012G25KT 4SM RA BR BKN025 OVC040=



000
FTUS41 KBTV 212300
TAFMSS
TAF
KMSS 212336Z 2200/2224 24004KT P6SM -RA BKN050 OVC090
     FM220900 20004KT P6SM BKN045
     FM221500 22008KT 4SM RA BR SCT025 OVC045
     FM221800 25007KT P6SM -RA BKN025 OVC045=



000
FTUS41 KBTV 212300
TAFSLK
TAF
KSLK 212336Z 2200/2224 VRB03KT P6SM OVC060
     FM220200 23007KT P6SM VCSH OVC070
     FM220500 VRB03KT P6SM BKN070 OVC120
     FM221700 22012G22KT 4SM RA BR BKN025 OVC045=



000
FTUS41 KBTV 212300
TAFMPV
TAF
KMPV 212336Z 2200/2224 27004KT P6SM SCT090 BKN120
     FM220500 VRB03KT P6SM BKN080 OVC120
     FM221200 18010G20KT P6SM BKN080 OVC120
     FM222100 24007KT 4SM RA BR SCT020 OVC045=



000
FTUS41 KBTV 211800 AAA
TAFMSS
TAF AMD
KMSS 211837Z 2119/2218 23008KT P6SM -SHRA OVC080
     FM212100 23008KT P6SM VCSH BKN050
     FM220000 20004KT P6SM VCSH OVC070
      TEMPO 2201/2204 -RA BKN045
     FM220400 20004KT P6SM BKN045
     FM221600 22008KT P6SM -RA BKN045=



000
FTUS41 KBTV 211700
TAFBTV
TAF
KBTV 211722Z 2118/2218 20012G20KT P6SM BKN100
     FM220000 18005KT P6SM OVC080
     FM220400 17004KT P6SM VCSH OVC080
     FM221100 19010G20KT P6SM BKN045=



000
FTUS41 KBTV 211700
TAFSLK
TAF
KSLK 211722Z 2118/2218 23010G18KT P6SM OVC080
     FM220100 23007KT P6SM VCSH OVC070
     FM220500 VRB03KT P6SM BKN050
     FM221300 22007KT P6SM VCSH SCT025 BKN045=



000
FTUS41 KBTV 211700
TAFMSS
TAF
KMSS 211722Z 2118/2218 23008G15KT P6SM OVC080
     FM220000 20004KT P6SM VCSH OVC070
      TEMPO 2201/2204 -RA BKN045
     FM220400 20004KT P6SM BKN045
     FM221600 22008KT P6SM -RA BKN045=



000
FTUS41 KBTV 211700
TAFMPV
TAF
KMPV 211722Z 2118/2218 18006KT P6SM BKN100
     FM221200 17009KT P6SM OVC080=



000
FTUS41 KBTV 211100
TAFBTV
TAF
KBTV 211120Z 2112/2212 20012G20KT P6SM BKN100
     FM220000 18005KT P6SM OVC080
     FM220400 17004KT P6SM VCSH OVC080=



000
FTUS41 KBTV 211100
TAFMSS
TAF
KMSS 211120Z 2112/2212 23008G15KT P6SM OVC080
     FM220100 20004KT P6SM VCSH OVC070=



000
FTUS41 KBTV 211100
TAFMPV
TAF
KMPV 211120Z 2112/2212 18006KT P6SM BKN100
     FM211400 22008G15KT P6SM BKN100
     FM220000 VRB02KT P6SM OVC080=



000
FTUS41 KBTV 211100
TAFSLK
TAF
KSLK 211120Z 2112/2212 23010G17KT P6SM OVC080
     FM220100 VRB02KT P6SM VCSH OVC070=



    US Dept of Commerce
    National Oceanic and Atmospheric Administration
    National Weather Service
    1325 East West Highway
    Silver Spring, MD 20910
    Page Author: NWS Internet Services Team
Disclaimer
Information Quality
Credits
Glossary
Privacy Policy
Freedom of Information Act (FOIA)
About Us
Career Opportunities